Time;durP1;ratioP1;P1;durP2;ratioP2;P2;SDS_P1;SDS_P2;PMS_P1;PMS_P2;Temp;Humidity;BMP_temperature;BMP_pressure;BME280_temperature;BME280_humidity;BME280_pressure;Samples;Min_cycle;Max_cycle;Signal;HPM_P1;HPM_P2
2021/12/17 00:07:03;;;;;;;;;;;22.20;99.90;;;;;;5073010;28;19912;-73
2021/12/17 00:09:31;;;;;;;;;;;22.20;99.90;;;;;;5073039;28;19920;-73
2021/12/17 00:11:58;;;;;;;;;;;22.20;99.90;;;;;;5071839;28;20007;-73
2021/12/17 00:14:29;;;;;;;;;;;22.20;99.90;;;;;;5072818;28;19935;-74
2021/12/17 00:16:58;;;;;;;;;;;22.10;99.90;;;;;;5072000;28;20019;-73
2021/12/17 00:20:24;;;;;;;;;;;22.20;99.90;;;;;;5072574;28;19913;-73
2021/12/17 00:49:30;;;;;;;;;;;22.80;99.90;;;;;;5072463;28;19912;-72
2021/12/17 00:52:02;;;;;;;;;;;22.90;99.90;;;;;;5071661;28;19951;-72
2021/12/17 00:54:36;;;;;;;;;;;22.90;99.90;;;;;;5072561;28;19974;-73
2021/12/17 00:57:29;;;;;;;;;;;22.90;99.90;;;;;;5071510;28;19913;-73
2021/12/17 00:59:56;;;;;;;;;;;23.00;99.90;;;;;;5071673;28;19917;-73
2021/12/17 01:02:28;;;;;;;;;;;23.00;99.90;;;;;;5059140;28;20317;-73
2021/12/17 01:04:56;;;;;;;;;;;23.20;99.90;;;;;;5072194;28;20385;-72
2021/12/17 01:07:25;;;;;;;;;;;23.40;99.90;;;;;;5072605;28;19948;-72
2021/12/17 01:09:52;;;;;;;;;;;23.50;99.90;;;;;;5072241;28;19920;-72
2021/12/17 01:12:19;;;;;;;;;;;23.40;99.90;;;;;;5072009;28;20058;-73
2021/12/17 01:14:46;;;;;;;;;;;23.30;99.90;;;;;;5073435;28;20367;-71
2021/12/17 01:17:13;;;;;;;;;;;23.20;99.90;;;;;;5072259;28;20334;-72
2021/12/17 01:20:20;;;;;;;;;;;23.10;99.90;;;;;;5072117;28;19964;-73
2021/12/17 01:36:18;;;;;;;;;;;22.70;99.90;;;;;;5072416;28;20365;-73
2021/12/17 01:42:03;;;;;;;;;;;22.80;99.90;;;;;;5072333;28;20384;-73
2021/12/17 01:44:30;;;;;;;;;;;22.90;99.90;;;;;;5062742;28;19920;-73
2021/12/17 01:46:57;;;;;;;;;;;23.00;99.90;;;;;;5071436;28;19924;-73
2021/12/17 01:55:47;;;;;;;;;;;22.90;99.90;;;;;;5071805;28;19974;-74
2021/12/17 02:00:40;;;;;;;;;;;23.30;99.90;;;;;;5059241;28;19998;-73
2021/12/17 02:03:07;;;;;;;;;;;23.30;99.90;;;;;;5060853;28;19917;-73
2021/12/17 02:05:34;;;;;;;;;;;23.20;99.90;;;;;;5070248;28;20000;-73
2021/12/17 02:08:01;;;;;;;;;;;23.20;99.90;;;;;;5071437;28;19948;-74
2021/12/17 02:32:04;;;;;;;;;;;23.20;99.90;;;;;;5074132;28;19982;-73
2021/12/17 02:37:08;;;;;;;;;;;23.40;99.90;;;;;;5074348;28;20011;-72
2021/12/17 02:47:34;;;;;;;;;;;23.60;99.90;;;;;;5074572;28;19958;-72
2021/12/17 02:50:01;;;;;;;;;;;23.60;99.90;;;;;;5074142;28;19919;-72
2021/12/17 02:52:29;;;;;;;;;;;23.70;99.90;;;;;;5073836;28;20413;-73
2021/12/17 02:54:57;;;;;;;;;;;23.80;99.90;;;;;;5072940;28;19917;-72
2021/12/17 02:57:24;;;;;;;;;;;23.90;99.90;;;;;;5073605;28;19912;-73
2021/12/17 02:59:51;;;;;;;;;;;23.90;99.90;;;;;;5074156;28;19913;-72
2021/12/17 03:02:18;;;;;;;;;;;24.00;99.90;;;;;;5073959;28;19913;-72
2021/12/17 03:04:44;;;;;;;;;;;23.90;99.90;;;;;;5074208;28;19916;-72
2021/12/17 03:07:12;;;;;;;;;;;24.00;99.90;;;;;;5073857;28;19913;-71
2021/12/17 03:10:02;;;;;;;;;;;24.00;99.90;;;;;;5074016;28;19921;-71
2021/12/17 03:12:38;;;;;;;;;;;24.00;99.90;;;;;;5073252;28;19912;-71
2021/12/17 03:15:18;;;;;;;;;;;23.90;99.90;;;;;;5073889;28;19913;-72
2021/12/17 03:25:52;;;;;;;;;;;23.80;99.90;;;;;;5072912;28;19921;-73
2021/12/17 03:28:20;;;;;;;;;;;23.80;99.90;;;;;;5073946;28;20275;-72
2021/12/17 03:30:47;;;;;;;;;;;23.80;99.90;;;;;;5073287;28;19916;-73
2021/12/17 03:33:14;;;;;;;;;;;23.80;99.90;;;;;;5073494;28;19913;-73
2021/12/17 03:35:40;;;;;;;;;;;23.90;99.90;;;;;;5073162;28;20370;-73
2021/12/17 03:38:07;;;;;;;;;;;23.80;99.90;;;;;;5073093;28;19912;-73
2021/12/17 03:40:34;;;;;;;;;;;23.70;99.90;;;;;;5072867;28;20015;-72
2021/12/17 03:43:04;;;;;;;;;;;23.70;99.90;;;;;;5073481;28;19995;-73
2021/12/17 03:45:30;;;;;;;;;;;23.70;99.90;;;;;;5072702;28;20015;-72
2021/12/17 03:47:57;;;;;;;;;;;23.70;99.90;;;;;;5073247;28;20370;-73
2021/12/17 03:50:24;;;;;;;;;;;23.80;99.90;;;;;;5073121;28;19918;-72
2021/12/17 03:52:51;;;;;;;;;;;23.80;99.90;;;;;;5073042;28;20003;-73
2021/12/17 03:55:17;;;;;;;;;;;23.80;99.90;;;;;;5073053;28;19919;-73
2021/12/17 03:57:44;;;;;;;;;;;23.80;99.90;;;;;;5072364;28;19916;-73
2021/12/17 04:00:12;;;;;;;;;;;23.60;99.90;;;;;;5105431;28;19912;-73
2021/12/17 04:02:38;;;;;;;;;;;23.80;99.90;;;;;;5072309;28;19913;-74
2021/12/17 04:05:05;;;;;;;;;;;23.70;99.90;;;;;;5072867;28;19916;-72
2021/12/17 04:07:32;;;;;;;;;;;23.90;99.90;;;;;;5072527;28;20038;-73
2021/12/17 04:09:59;;;;;;;;;;;23.80;99.90;;;;;;5072362;28;19920;-73
2021/12/17 04:12:41;;;;;;;;;;;23.90;99.90;;;;;;5072533;28;20317;-71
2021/12/17 04:15:08;;;;;;;;;;;23.80;99.90;;;;;;5073695;28;19912;-72
2021/12/17 04:17:42;;;;;;;;;;;23.90;99.90;;;;;;5074544;28;19995;-74
2021/12/17 04:20:09;;;;;;;;;;;23.80;99.90;;;;;;5075381;28;19912;-72
2021/12/17 04:22:36;;;;;;;;;;;23.70;99.90;;;;;;5072680;28;20275;-73
2021/12/17 04:25:03;;;;;;;;;;;23.70;99.90;;;;;;5072621;28;19920;-73
2021/12/17 04:27:30;;;;;;;;;;;23.80;99.90;;;;;;5072179;28;19927;-73
2021/12/17 04:29:57;;;;;;;;;;;23.80;99.90;;;;;;5072446;28;19916;-73
2021/12/17 04:32:24;;;;;;;;;;;24.00;99.90;;;;;;5071789;28;19920;-72
2021/12/17 04:34:51;;;;;;;;;;;24.10;99.90;;;;;;5072356;28;19916;-72
2021/12/17 04:37:18;;;;;;;;;;;24.20;99.90;;;;;;5071841;28;20428;-72
2021/12/17 04:39:45;;;;;;;;;;;24.20;99.90;;;;;;5072120;28;19913;-73
2021/12/17 04:42:30;;;;;;;;;;;24.20;99.90;;;;;;5071889;28;19919;-72
2021/12/17 04:44:58;;;;;;;;;;;24.30;99.90;;;;;;5062356;28;19920;-72
2021/12/17 04:58:25;;;;;;;;;;;23.90;99.90;;;;;;5072369;28;19958;-72
2021/12/17 05:00:52;;;;;;;;;;;24.00;99.90;;;;;;5071427;28;19920;-74
2021/12/17 05:03:19;;;;;;;;;;;23.90;99.90;;;;;;5071933;28;19917;-72
2021/12/17 05:05:46;;;;;;;;;;;23.90;99.90;;;;;;5071458;28;19920;-73
2021/12/17 05:08:16;;;;;;;;;;;23.90;99.90;;;;;;5071639;28;20485;-73
2021/12/17 05:19:42;;;;;;;;;;;23.70;99.90;;;;;;5071843;28;20069;-73
2021/12/17 05:21:50;;;;;;;;;;;23.70;99.90;;;;;;5060179;28;19913;-72
2021/12/17 05:24:16;;;;;;;;;;;23.80;99.90;;;;;;5071123;28;19921;-71
2021/12/17 05:26:43;;;;;;;;;;;23.90;99.90;;;;;;5071800;28;19916;-71
2021/12/17 05:29:10;;;;;;;;;;;23.90;99.90;;;;;;5071598;28;20001;-72
2021/12/17 05:31:36;;;;;;;;;;;23.90;99.90;;;;;;5072092;28;19920;-72
2021/12/17 05:34:03;;;;;;;;;;;23.80;99.90;;;;;;5070950;28;19924;-72
2021/12/17 05:36:30;;;;;;;;;;;23.90;99.90;;;;;;5071588;28;19912;-73
2021/12/17 05:38:56;;;;;;;;;;;23.80;99.90;;;;;;5071470;28;19916;-74
2021/12/17 05:41:23;;;;;;;;;;;23.70;99.90;;;;;;5071255;28;19948;-72
2021/12/17 05:43:56;;;;;;;;;;;23.80;99.90;;;;;;5071503;28;19913;-72
2021/12/17 05:49:07;;;;;;;;;;;23.80;99.90;;;;;;5071976;28;19966;-74
2021/12/17 05:51:34;;;;;;;;;;;23.70;99.90;;;;;;5058459;28;19913;-74
2021/12/17 05:54:01;;;;;;;;;;;23.70;99.90;;;;;;5069347;28;19912;-73
2021/12/17 05:56:28;;;;;;;;;;;23.70;99.90;;;;;;5068958;28;19938;-75
2021/12/17 05:58:56;;;;;;;;;;;23.70;99.90;;;;;;5069450;28;19913;-73
2021/12/17 06:01:23;;;;;;;;;;;23.70;99.90;;;;;;5060579;28;19913;-73
2021/12/17 06:03:50;;;;;;;;;;;23.50;99.90;;;;;;5072743;28;19938;-74
2021/12/17 06:06:30;;;;;;;;;;;23.60;99.90;;;;;;5072745;28;20294;-73
2021/12/17 06:08:57;;;;;;;;;;;23.50;99.90;;;;;;5072698;28;19975;-74
2021/12/17 06:11:23;;;;;;;;;;;23.50;99.90;;;;;;5072669;28;19916;-74
2021/12/17 06:13:53;;;;;;;;;;;23.40;99.90;;;;;;5073065;28;19920;-73
2021/12/17 06:16:19;;;;;;;;;;;23.40;99.90;;;;;;5072556;28;19917;-74
2021/12/17 06:18:46;;;;;;;;;;;23.40;99.90;;;;;;5072769;28;19913;-75
2021/12/17 06:21:12;;;;;;;;;;;23.50;99.90;;;;;;5072655;28;19917;-74
2021/12/17 06:23:39;;;;;;;;;;;23.50;99.90;;;;;;5072823;28;19923;-73
2021/12/17 06:26:06;;;;;;;;;;;23.50;99.90;;;;;;5072124;28;19929;-74
2021/12/17 06:28:32;;;;;;;;;;;23.60;99.90;;;;;;5072879;28;19951;-75
2021/12/17 06:30:59;;;;;;;;;;;23.50;99.90;;;;;;5071949;28;19912;-75
2021/12/17 06:33:26;;;;;;;;;;;23.40;99.90;;;;;;5072702;28;19999;-73
2021/12/17 06:35:52;;;;;;;;;;;23.40;99.90;;;;;;5071947;28;20289;-74
2021/12/17 06:38:20;;;;;;;;;;;23.40;99.90;;;;;;5072823;28;19927;-75
2021/12/17 06:40:48;;;;;;;;;;;23.30;99.90;;;;;;5072242;28;20007;-73
2021/12/17 06:43:17;;;;;;;;;;;23.20;99.90;;;;;;5072088;28;19954;-75
2021/12/17 06:45:58;;;;;;;;;;;23.20;99.90;;;;;;5072275;28;19946;-73
2021/12/17 06:48:28;;;;;;;;;;;23.20;99.90;;;;;;5072541;28;19973;-74
2021/12/17 06:57:05;;;;;;;;;;;23.20;99.90;;;;;;5071581;28;20004;-76
2021/12/17 06:59:50;;;;;;;;;;;23.20;99.90;;;;;;5072165;28;19912;-75
2021/12/17 07:08:52;;;;;;;;;;;23.10;99.90;;;;;;5071891;28;19927;-73
2021/12/17 07:10:43;;;;;;;;;;;23.00;99.90;;;;;;5063713;28;19924;-72
2021/12/17 07:21:34;;;;;;;;;;;22.80;99.90;;;;;;5071484;28;19917;-73
2021/12/17 07:31:02;;;;;;;;;;;22.80;99.90;;;;;;5056601;28;19919;-71
2021/12/17 07:35:26;;;;;;;;;;;22.70;99.90;;;;;;5010588;28;19914;-74
2021/12/17 07:40:38;;;;;;;;;;;22.70;99.90;;;;;;5049688;28;20033;-72
2021/12/17 07:43:11;;;;;;;;;;;22.70;99.90;;;;;;5052960;28;19954;-72
2021/12/17 07:45:37;;;;;;;;;;;22.70;99.90;;;;;;5071377;28;20375;-71
2021/12/17 07:48:04;;;;;;;;;;;22.70;99.90;;;;;;5070650;28;20344;-73
2021/12/17 07:50:31;;;;;;;;;;;22.70;99.90;;;;;;5053045;28;19955;-73
2021/12/17 07:52:59;;;;;;;;;;;22.60;99.90;;;;;;5070590;28;19917;-73
2021/12/17 07:55:25;;;;;;;;;;;22.50;99.90;;;;;;5071652;28;20414;-72
2021/12/17 07:57:52;;;;;;;;;;;22.60;99.90;;;;;;5070513;28;19912;-73
2021/12/17 08:00:19;;;;;;;;;;;22.50;99.90;;;;;;5070789;28;19970;-71
2021/12/17 08:02:45;;;;;;;;;;;22.50;99.90;;;;;;5070446;28;19917;-72
2021/12/17 08:05:12;;;;;;;;;;;22.50;99.90;;;;;;5071022;28;20058;-71
2021/12/17 08:07:39;;;;;;;;;;;22.50;99.90;;;;;;5067543;28;19913;-72
2021/12/17 08:10:05;;;;;;;;;;;22.40;99.90;;;;;;5071463;28;19921;-72
2021/12/17 08:12:32;;;;;;;;;;;22.40;99.90;;;;;;5072245;28;20002;-70
2021/12/17 08:14:59;;;;;;;;;;;22.30;99.90;;;;;;5072015;28;19919;-72
2021/12/17 08:23:39;;;;;;;;;;;22.20;99.90;;;;;;5072758;28;19919;-72
2021/12/17 08:28:28;;;;;;;;;;;22.20;99.90;;;;;;5072947;28;19913;-74
2021/12/17 08:30:55;;;;;;;;;;;22.20;99.90;;;;;;5074569;28;19941;-73
2021/12/17 08:33:22;;;;;;;;;;;22.20;99.90;;;;;;5073383;28;20374;-72
2021/12/17 08:35:48;;;;;;;;;;;22.20;99.90;;;;;;5072233;28;19919;-73
2021/12/17 08:38:19;;;;;;;;;;;22.20;99.90;;;;;;5072045;28;19924;-73
2021/12/17 08:40:45;;;;;;;;;;;22.20;99.90;;;;;;5071568;28;20398;-75
2021/12/17 08:43:12;;;;;;;;;;;22.20;99.90;;;;;;5071919;28;19970;-71
2021/12/17 08:45:39;;;;;;;;;;;22.10;99.90;;;;;;5072154;28;20279;-74
2021/12/17 08:48:05;;;;;;;;;;;22.00;99.90;;;;;;5071498;28;19920;-73
2021/12/17 08:50:32;;;;;;;;;;;22.00;99.90;;;;;;5072126;28;19920;-75
2021/12/17 08:52:59;;;;;;;;;;;22.00;99.90;;;;;;5072038;28;20244;-73
2021/12/17 08:55:25;;;;;;;;;;;22.00;99.90;;;;;;5071434;28;19912;-74
2021/12/17 08:57:52;;;;;;;;;;;22.00;99.90;;;;;;5071647;28;19912;-74
2021/12/17 09:00:19;;;;;;;;;;;22.00;99.90;;;;;;5071694;28;20007;-73
2021/12/17 09:02:45;;;;;;;;;;;22.00;99.90;;;;;;5070949;28;19913;-75
2021/12/17 09:05:12;;;;;;;;;;;22.00;99.90;;;;;;5071342;28;19916;-73
2021/12/17 09:07:39;;;;;;;;;;;21.90;99.90;;;;;;5071843;28;19913;-74
2021/12/17 09:10:06;;;;;;;;;;;21.90;99.90;;;;;;5070416;28;20507;-74
2021/12/17 09:12:33;;;;;;;;;;;21.90;99.90;;;;;;5072031;28;19913;-73
2021/12/17 09:15:00;;;;;;;;;;;21.80;99.90;;;;;;5071253;28;19943;-74
2021/12/17 09:17:26;;;;;;;;;;;21.90;99.90;;;;;;5071957;28;19923;-73
2021/12/17 09:19:53;;;;;;;;;;;21.80;99.90;;;;;;5070885;28;19913;-73
2021/12/17 09:22:19;;;;;;;;;;;21.80;99.90;;;;;;5072015;28;19966;-75
2021/12/17 09:24:46;;;;;;;;;;;21.80;99.90;;;;;;5070540;28;19969;-74
2021/12/17 09:27:13;;;;;;;;;;;21.80;99.90;;;;;;5071821;28;19924;-75
2021/12/17 09:29:39;;;;;;;;;;;21.80;99.90;;;;;;5071636;28;19919;-73
2021/12/17 09:32:06;;;;;;;;;;;21.80;99.90;;;;;;5070792;28;19920;-73
2021/12/17 09:34:33;;;;;;;;;;;21.80;99.90;;;;;;5071515;28;20366;-73
2021/12/17 09:36:59;;;;;;;;;;;21.80;99.90;;;;;;5074803;28;19916;-75
2021/12/17 09:39:26;;;;;;;;;;;21.70;99.90;;;;;;5075569;28;20379;-74
2021/12/17 09:41:53;;;;;;;;;;;21.80;99.90;;;;;;5074891;28;19924;-73
2021/12/17 09:44:20;;;;;;;;;;;21.80;99.90;;;;;;5075757;28;19912;-74
2021/12/17 09:46:47;;;;;;;;;;;21.70;99.90;;;;;;5075193;28;19959;-73
2021/12/17 09:49:15;;;;;;;;;;;21.70;99.90;;;;;;5075693;28;20263;-73
2021/12/17 09:51:42;;;;;;;;;;;21.70;99.90;;;;;;5075105;28;19927;-75
2021/12/17 09:54:09;;;;;;;;;;;21.70;99.90;;;;;;5073890;28;19916;-74
2021/12/17 09:56:35;;;;;;;;;;;21.70;99.90;;;;;;5074575;28;19919;-74
2021/12/17 09:59:02;;;;;;;;;;;21.70;99.90;;;;;;5075469;28;20449;-72
2021/12/17 10:01:29;;;;;;;;;;;21.60;99.90;;;;;;5075011;28;20366;-73
2021/12/17 10:04:14;;;;;;;;;;;21.60;99.90;;;;;;5074649;28;19944;-74
2021/12/17 10:06:40;;;;;;;;;;;21.60;99.90;;;;;;5074773;28;19920;-74
2021/12/17 10:09:07;;;;;;;;;;;21.60;99.90;;;;;;5074836;28;19924;-73
2021/12/17 10:11:34;;;;;;;;;;;21.60;99.90;;;;;;5074365;28;19966;-72
2021/12/17 10:14:26;;;;;;;;;;;21.60;99.90;;;;;;5074926;28;19920;-72
2021/12/17 10:17:04;;;;;;;;;;;21.60;99.90;;;;;;5073461;28;19920;-76
2021/12/17 10:19:45;;;;;;;;;;;21.60;99.90;;;;;;5075169;28;19944;-74
2021/12/17 10:22:13;;;;;;;;;;;21.60;99.90;;;;;;5074560;28;20248;-74
2021/12/17 10:24:42;;;;;;;;;;;21.60;99.90;;;;;;5074217;28;20380;-75
2021/12/17 10:27:28;;;;;;;;;;;21.60;99.90;;;;;;5074613;28;19919;-74
2021/12/17 10:29:55;;;;;;;;;;;21.50;99.90;;;;;;5074600;28;20381;-76
2021/12/17 10:32:24;;;;;;;;;;;21.60;99.90;;;;;;5074732;28;19920;-75
2021/12/17 10:35:08;;;;;;;;;;;21.60;99.90;;;;;;5074404;28;20353;-74
2021/12/17 10:37:42;;;;;;;;;;;21.60;99.90;;;;;;5063904;28;19912;-76
2021/12/17 10:40:16;;;;;;;;;;;21.60;99.90;;;;;;5073378;28;19924;-75
2021/12/17 10:42:51;;;;;;;;;;;21.50;99.90;;;;;;5074798;28;19917;-75
2021/12/17 10:45:27;;;;;;;;;;;21.50;99.90;;;;;;5073868;28;20909;-73
2021/12/17 10:48:02;;;;;;;;;;;21.50;99.90;;;;;;5073382;28;19912;-76
2021/12/17 10:50:29;;;;;;;;;;;21.50;99.90;;;;;;5073980;28;20290;-76
2021/12/17 10:52:56;;;;;;;;;;;21.50;99.90;;;;;;5074520;28;19955;-76
2021/12/17 10:55:24;;;;;;;;;;;21.50;99.90;;;;;;5073039;28;19913;-74
2021/12/17 10:57:51;;;;;;;;;;;21.50;99.90;;;;;;5074088;28;19920;-75
2021/12/17 11:00:20;;;;;;;;;;;21.40;99.90;;;;;;5073961;28;19943;-74
2021/12/17 11:02:50;;;;;;;;;;;21.40;99.90;;;;;;5074593;28;19927;-74
2021/12/17 11:05:17;;;;;;;;;;;21.40;99.90;;;;;;5073574;28;20375;-76
2021/12/17 11:07:45;;;;;;;;;;;21.40;99.90;;;;;;5074020;28;19917;-76
2021/12/17 11:10:12;;;;;;;;;;;21.40;99.90;;;;;;5072959;28;19921;-74
2021/12/17 11:12:38;;;;;;;;;;;21.30;99.90;;;;;;5074206;28;19917;-76
2021/12/17 11:15:12;;;;;;;;;;;21.30;99.90;;;;;;5073512;28;19913;-75
2021/12/17 11:17:40;;;;;;;;;;;21.40;99.90;;;;;;5074018;28;19936;-74
2021/12/17 11:20:12;;;;;;;;;;;21.30;99.90;;;;;;5073449;28;20432;-76
2021/12/17 11:22:40;;;;;;;;;;;21.30;99.90;;;;;;5072577;28;20011;-75
2021/12/17 11:25:07;;;;;;;;;;;21.30;99.90;;;;;;5072631;28;19924;-74
2021/12/17 11:27:34;;;;;;;;;;;21.30;99.90;;;;;;5072887;28;19917;-74
2021/12/17 11:30:02;;;;;;;;;;;21.20;99.90;;;;;;5073284;28;19912;-75
2021/12/17 11:32:29;;;;;;;;;;;21.20;99.90;;;;;;5073067;28;19987;-76
2021/12/17 11:34:56;;;;;;;;;;;21.20;99.90;;;;;;5072285;28;19912;-75
2021/12/17 11:37:25;;;;;;;;;;;21.20;99.90;;;;;;5072832;28;20302;-73
2021/12/17 11:39:54;;;;;;;;;;;21.20;99.90;;;;;;5072580;28;19958;-73
2021/12/17 11:42:25;;;;;;;;;;;21.20;99.90;;;;;;5072846;28;19912;-73
2021/12/17 11:45:23;;;;;;;;;;;21.20;99.90;;;;;;5073207;28;19920;-72
2021/12/17 11:47:42;;;;;;;;;;;21.20;99.90;;;;;;5072546;28;19956;-74
2021/12/17 11:50:10;;;;;;;;;;;21.20;99.90;;;;;;5072840;28;19916;-73
2021/12/17 11:52:40;;;;;;;;;;;21.10;99.90;;;;;;5073157;28;19916;-74
2021/12/17 11:55:25;;;;;;;;;;;21.20;99.90;;;;;;5073054;28;19927;-74
2021/12/17 11:57:52;;;;;;;;;;;21.20;99.90;;;;;;5062584;28;19912;-75
2021/12/17 12:00:24;;;;;;;;;;;21.20;99.90;;;;;;5072565;28;20034;-73
2021/12/17 12:02:55;;;;;;;;;;;21.10;99.90;;;;;;5062896;28;19913;-75
2021/12/17 12:05:40;;;;;;;;;;;21.10;99.90;;;;;;5072609;28;19974;-75
2021/12/17 12:08:27;;;;;;;;;;;21.10;99.90;;;;;;5063946;28;19923;-75
2021/12/17 12:11:12;;;;;;;;;;;21.10;99.90;;;;;;5071192;28;19979;-75
2021/12/17 12:13:46;;;;;;;;;;;21.10;99.90;;;;;;5072437;28;19916;-75
2021/12/17 12:16:17;;;;;;;;;;;21.10;99.90;;;;;;5062275;28;20317;-74
2021/12/17 12:18:50;;;;;;;;;;;21.10;99.90;;;;;;5072155;28;19949;-73
2021/12/17 12:21:19;;;;;;;;;;;21.10;99.90;;;;;;5062399;28;20374;-75
2021/12/17 12:23:47;;;;;;;;;;;21.00;99.90;;;;;;5072074;28;20286;-76
2021/12/17 12:26:15;;;;;;;;;;;21.00;99.90;;;;;;5061743;28;19920;-74
2021/12/17 12:28:48;;;;;;;;;;;21.10;99.90;;;;;;5072181;28;19958;-74
2021/12/17 12:31:18;;;;;;;;;;;21.00;99.90;;;;;;5061722;28;20402;-77
2021/12/17 12:34:20;;;;;;;;;;;21.00;99.90;;;;;;5071985;28;19917;-76
2021/12/17 12:36:49;;;;;;;;;;;21.00;99.90;;;;;;5065898;28;19917;-74
2021/12/17 12:39:18;;;;;;;;;;;21.00;99.90;;;;;;5072272;28;20439;-76
2021/12/17 12:41:46;;;;;;;;;;;21.00;99.90;;;;;;5073551;28;19920;-75
2021/12/17 12:44:13;;;;;;;;;;;21.00;99.90;;;;;;5072297;28;19912;-73
2021/12/17 12:46:57;;;;;;;;;;;21.00;99.90;;;;;;5072791;28;19956;-73
2021/12/17 12:49:42;;;;;;;;;;;21.00;99.90;;;;;;5072436;28;19913;-74
2021/12/17 12:52:21;;;;;;;;;;;21.00;99.90;;;;;;5071506;28;20275;-73
2021/12/17 12:54:49;;;;;;;;;;;21.00;99.90;;;;;;5072207;28;19924;-75
2021/12/17 12:57:26;;;;;;;;;;;21.00;99.90;;;;;;5071755;28;20483;-76
2021/12/17 12:59:54;;;;;;;;;;;21.00;99.90;;;;;;5071954;28;20283;-75
2021/12/17 13:02:21;;;;;;;;;;;21.00;99.90;;;;;;5071659;28;19923;-76
2021/12/17 13:04:47;;;;;;;;;;;20.90;99.90;;;;;;5071936;28;19916;-75
2021/12/17 13:07:14;;;;;;;;;;;20.90;99.90;;;;;;5071500;28;20367;-75
2021/12/17 13:09:42;;;;;;;;;;;20.90;99.90;;;;;;5071553;28;19921;-76
2021/12/17 13:12:10;;;;;;;;;;;20.90;99.90;;;;;;5070953;28;20426;-75
2021/12/17 13:14:46;;;;;;;;;;;20.90;99.90;;;;;;5072179;28;19916;-74
2021/12/17 13:17:41;;;;;;;;;;;20.90;99.90;;;;;;5071397;28;19913;-75
2021/12/17 13:22:58;;;;;;;;;;;20.80;99.90;;;;;;5059856;28;20300;-75
2021/12/17 13:25:26;;;;;;;;;;;20.80;99.90;;;;;;5071393;28;19920;-74
2021/12/17 13:27:53;;;;;;;;;;;20.80;99.90;;;;;;5071697;28;19923;-74
2021/12/17 13:30:24;;;;;;;;;;;20.80;99.90;;;;;;5071916;28;19966;-75
2021/12/17 13:32:52;;;;;;;;;;;20.80;99.90;;;;;;5071234;28;20351;-74
2021/12/17 13:35:19;;;;;;;;;;;20.80;99.90;;;;;;5071878;28;19912;-74
2021/12/17 13:37:46;;;;;;;;;;;20.80;99.90;;;;;;5071241;28;19912;-75
2021/12/17 13:40:15;;;;;;;;;;;20.70;99.90;;;;;;5071778;28;19920;-76
2021/12/17 13:42:43;;;;;;;;;;;20.80;99.90;;;;;;5071473;28;19920;-74
2021/12/17 13:45:11;;;;;;;;;;;20.80;99.90;;;;;;5071612;28;19966;-75
2021/12/17 13:47:42;;;;;;;;;;;20.70;99.90;;;;;;5071159;28;19987;-75
2021/12/17 13:50:12;;;;;;;;;;;20.70;99.90;;;;;;5071408;28;19935;-73
2021/12/17 13:53:00;;;;;;;;;;;20.70;99.90;;;;;;5071022;28;19919;-76
2021/12/17 13:55:32;;;;;;;;;;;20.70;99.90;;;;;;5071160;28;19916;-75
2021/12/17 13:58:00;;;;;;;;;;;20.70;99.90;;;;;;5071542;28;19919;-74
2021/12/17 14:00:36;;;;;;;;;;;20.60;99.90;;;;;;5071260;28;20272;-75
2021/12/17 14:03:03;;;;;;;;;;;20.70;99.90;;;;;;5059798;28;19920;-75
2021/12/17 14:05:40;;;;;;;;;;;20.70;99.90;;;;;;5071019;28;19927;-74
2021/12/17 14:08:11;;;;;;;;;;;20.60;99.90;;;;;;5059674;28;20337;-75
2021/12/17 14:10:38;;;;;;;;;;;20.60;99.90;;;;;;5070963;28;19916;-76
2021/12/17 14:13:06;;;;;;;;;;;20.60;99.90;;;;;;5059762;28;19946;-76
2021/12/17 14:15:34;;;;;;;;;;;20.60;99.90;;;;;;5070900;28;19913;-76
2021/12/17 14:18:02;;;;;;;;;;;20.60;99.90;;;;;;5070776;28;19912;-76
2021/12/17 14:20:37;;;;;;;;;;;20.60;99.90;;;;;;5071166;28;20325;-76
2021/12/17 14:23:11;;;;;;;;;;;20.60;99.90;;;;;;5072897;28;19970;-75
2021/12/17 14:25:40;;;;;;;;;;;20.60;99.90;;;;;;5074539;28;19916;-75
2021/12/17 14:28:12;;;;;;;;;;;20.50;99.90;;;;;;5062745;28;19947;-73
2021/12/17 14:30:40;;;;;;;;;;;20.50;99.90;;;;;;5074572;28;20256;-74
2021/12/17 14:33:15;;;;;;;;;;;20.50;99.90;;;;;;5063266;28;19916;-76
2021/12/17 14:35:43;;;;;;;;;;;20.50;99.90;;;;;;5074317;28;20000;-76
2021/12/17 14:38:09;;;;;;;;;;;20.40;99.90;;;;;;5074426;28;19912;-74
2021/12/17 14:40:50;;;;;;;;;;;20.40;99.90;;;;;;5074197;28;19912;-74
2021/12/17 14:43:21;;;;;;;;;;;20.40;99.90;;;;;;5064436;28;19916;-74
2021/12/17 14:45:52;;;;;;;;;;;20.40;99.90;;;;;;5073848;28;19928;-74
2021/12/17 14:48:22;;;;;;;;;;;20.40;99.90;;;;;;5074844;28;20003;-75
2021/12/17 15:04:37;;;;;;;;;;;20.40;99.90;;;;;;5074219;28;19916;-75
2021/12/17 15:07:03;;;;;;;;;;;20.40;99.90;;;;;;5074341;28;19940;-75
2021/12/17 15:09:35;;;;;;;;;;;20.40;99.90;;;;;;5073656;28;19921;-75
2021/12/17 15:12:12;;;;;;;;;;;20.30;99.90;;;;;;5074105;28;19913;-73
2021/12/17 15:14:38;;;;;;;;;;;20.30;99.90;;;;;;5073891;28;19942;-73
2021/12/17 15:17:05;;;;;;;;;;;20.30;99.90;;;;;;5074236;28;19959;-74
2021/12/17 15:19:34;;;;;;;;;;;20.30;99.90;;;;;;5070064;28;19912;-73
2021/12/17 15:22:00;;;;;;;;;;;20.20;99.90;;;;;;5065885;28;19958;-74
2021/12/17 15:24:27;;;;;;;;;;;20.20;99.90;;;;;;5058762;28;19931;-73
2021/12/17 15:26:53;;;;;;;;;;;20.20;99.90;;;;;;5064955;28;19944;-73
2021/12/17 15:29:22;;;;;;;;;;;20.20;99.90;;;;;;5073503;28;20330;-73
2021/12/17 15:31:49;;;;;;;;;;;20.20;99.90;;;;;;5065386;28;19919;-74
2021/12/17 15:34:16;;;;;;;;;;;20.20;99.90;;;;;;5067335;28;20279;-73
2021/12/17 15:36:42;;;;;;;;;;;20.20;99.90;;;;;;5062605;28;19912;-75
2021/12/17 15:39:09;;;;;;;;;;;20.10;99.90;;;;;;5073313;28;19920;-72
2021/12/17 15:41:40;;;;;;;;;;;20.10;99.90;;;;;;5067453;28;19958;-73
2021/12/17 15:44:07;;;;;;;;;;;20.10;99.90;;;;;;5068059;28;19978;-74
2021/12/17 15:46:34;;;;;;;;;;;20.10;99.90;;;;;;5073488;28;19928;-75
2021/12/17 15:49:01;;;;;;;;;;;20.10;99.90;;;;;;5073452;28;19912;-76
2021/12/17 15:51:29;;;;;;;;;;;20.10;99.90;;;;;;5068351;28;19913;-73
2021/12/17 15:53:56;;;;;;;;;;;20.10;99.90;;;;;;5066505;28;20011;-74
2021/12/17 15:56:23;;;;;;;;;;;20.00;99.90;;;;;;5072701;28;19920;-74
2021/12/17 15:58:52;;;;;;;;;;;20.00;99.90;;;;;;5073192;28;19913;-74
2021/12/17 16:01:19;;;;;;;;;;;20.00;99.90;;;;;;5072580;28;19973;-73
2021/12/17 16:03:47;;;;;;;;;;;20.00;99.90;;;;;;5073042;28;20015;-73
2021/12/17 16:06:14;;;;;;;;;;;20.00;99.90;;;;;;5072438;28;20054;-74
2021/12/17 16:08:48;;;;;;;;;;;19.90;99.90;;;;;;5072664;28;19916;-75
2021/12/17 16:11:39;;;;;;;;;;;19.90;99.90;;;;;;5072288;28;19939;-74
2021/12/17 16:17:23;;;;;;;;;;;19.90;99.90;;;;;;5062541;28;19919;-74
2021/12/17 16:22:23;;;;;;;;;;;19.90;99.90;;;;;;5072766;28;20275;-73
2021/12/17 16:24:49;;;;;;;;;;;19.90;99.90;;;;;;5072344;28;20015;-73
2021/12/17 16:27:16;;;;;;;;;;;19.90;99.90;;;;;;5072511;28;20394;-74
2021/12/17 16:29:43;;;;;;;;;;;19.90;99.90;;;;;;5072333;28;20260;-73
2021/12/17 16:32:18;;;;;;;;;;;19.90;99.90;;;;;;5072655;28;19924;-74
2021/12/17 16:34:45;;;;;;;;;;;19.90;99.90;;;;;;5071890;28;19912;-74
2021/12/17 16:37:11;;;;;;;;;;;19.90;99.90;;;;;;5072135;28;19913;-74
2021/12/17 16:39:38;;;;;;;;;;;19.90;99.90;;;;;;5072033;28;19913;-74
2021/12/17 16:42:05;;;;;;;;;;;19.90;99.90;;;;;;5072447;28;19912;-76
2021/12/17 16:44:42;;;;;;;;;;;19.90;99.90;;;;;;5071659;28;20444;-74
2021/12/17 16:47:09;;;;;;;;;;;19.90;99.90;;;;;;5072501;28;19989;-75
2021/12/17 16:49:36;;;;;;;;;;;19.90;99.90;;;;;;5072058;28;19920;-76
2021/12/17 16:52:05;;;;;;;;;;;20.00;99.90;;;;;;5072319;28;19916;-76
2021/12/17 16:54:32;;;;;;;;;;;19.90;99.90;;;;;;5072684;28;19919;-73
2021/12/17 16:56:58;;;;;;;;;;;19.90;99.90;;;;;;5073298;28;20003;-75
2021/12/17 16:59:25;;;;;;;;;;;19.80;99.90;;;;;;5072829;28;19912;-75
2021/12/17 17:01:52;;;;;;;;;;;19.70;99.90;;;;;;5071869;28;19919;-75
2021/12/17 17:04:18;;;;;;;;;;;19.70;99.90;;;;;;5072046;28;19963;-75
2021/12/17 17:06:45;;;;;;;;;;;19.70;99.90;;;;;;5071631;28;19946;-73
2021/12/17 17:09:12;;;;;;;;;;;19.70;99.90;;;;;;5072063;28;19926;-74
2021/12/17 17:11:41;;;;;;;;;;;19.80;99.90;;;;;;5070165;28;20024;-76
2021/12/17 17:14:08;;;;;;;;;;;19.70;99.90;;;;;;5071779;28;19913;-74
2021/12/17 17:16:36;;;;;;;;;;;19.70;99.90;;;;;;5071558;28;19917;-76
2021/12/17 17:19:03;;;;;;;;;;;19.70;99.90;;;;;;5071973;28;19912;-75
2021/12/17 17:21:30;;;;;;;;;;;19.80;99.90;;;;;;5071324;28;19928;-76
2021/12/17 17:24:00;;;;;;;;;;;19.80;99.90;;;;;;5071829;28;19923;-75
2021/12/17 17:26:28;;;;;;;;;;;19.80;99.90;;;;;;5071241;28;19940;-75
2021/12/17 17:28:55;;;;;;;;;;;19.80;99.90;;;;;;5071981;28;19913;-75
2021/12/17 17:31:22;;;;;;;;;;;19.80;99.90;;;;;;5071089;28;20007;-75
2021/12/17 17:33:49;;;;;;;;;;;19.70;99.90;;;;;;5071960;28;19919;-74